sensor_id;sensor_type;location;lat;lon;timestamp;temperature;humidity
52543;DHT22;38449;52.696;6.186;2023-04-03T00:00:32;3.20;99.90
52543;DHT22;38449;52.696;6.186;2023-04-03T00:02:58;3.20;99.90
52543;DHT22;38449;52.696;6.186;2023-04-03T00:05:26;3.20;99.90
52543;DHT22;38449;52.696;6.186;2023-04-03T00:07:52;3.20;99.90
52543;DHT22;38449;52.696;6.186;2023-04-03T00:10:19;3.10;99.90
52543;DHT22;38449;52.696;6.186;2023-04-03T00:12:45;3.10;99.90
52543;DHT22;38449;52.696;6.186;2023-04-03T00:15:13;3.20;99.90
52543;DHT22;38449;52.696;6.186;2023-04-03T00:17:39;3.10;99.90
52543;DHT22;38449;52.696;6.186;2023-04-03T00:20:06;3.10;99.90
52543;DHT22;38449;52.696;6.186;2023-04-03T00:22:32;3.00;99.90
52543;DHT22;38449;52.696;6.186;2023-04-03T00:24:59;3.00;99.90
52543;DHT22;38449;52.696;6.186;2023-04-03T00:27:25;3.00;99.90
52543;DHT22;38449;52.696;6.186;2023-04-03T00:29:52;3.00;99.90
52543;DHT22;38449;52.696;6.186;2023-04-03T00:32:18;2.90;99.90
52543;DHT22;38449;52.696;6.186;2023-04-03T00:34:44;3.00;99.90
52543;DHT22;38449;52.696;6.186;2023-04-03T00:37:11;2.90;99.90
52543;DHT22;38449;52.696;6.186;2023-04-03T00:39:37;2.90;99.90
52543;DHT22;38449;52.696;6.186;2023-04-03T00:42:04;2.80;99.90
52543;DHT22;38449;52.696;6.186;2023-04-03T00:47:00;2.80;99.90
52543;DHT22;38449;52.696;6.186;2023-04-03T00:49:27;2.80;99.90
52543;DHT22;38449;52.696;6.186;2023-04-03T00:51:55;2.80;99.90
52543;DHT22;38449;52.696;6.186;2023-04-03T00:54:26;2.80;99.90
52543;DHT22;38449;52.696;6.186;2023-04-03T00:56:55;2.80;99.90
52543;DHT22;38449;52.696;6.186;2023-04-03T00:59:27;2.70;99.90
52543;DHT22;38449;52.696;6.186;2023-04-03T01:01:56;2.70;99.90
52543;DHT22;38449;52.696;6.186;2023-04-03T01:04:38;2.70;99.90
52543;DHT22;38449;52.696;6.186;2023-04-03T01:07:15;2.60;99.90
52543;DHT22;38449;52.696;6.186;2023-04-03T01:09:42;2.60;99.90
52543;DHT22;38449;52.696;6.186;2023-04-03T01:12:21;2.60;99.90
52543;DHT22;38449;52.696;6.186;2023-04-03T01:14:56;2.50;99.90
52543;DHT22;38449;52.696;6.186;2023-04-03T01:23:03;2.50;99.90
52543;DHT22;38449;52.696;6.186;2023-04-03T01:25:33;2.50;99.90
52543;DHT22;38449;52.696;6.186;2023-04-03T01:28:00;2.40;99.90
52543;DHT22;38449;52.696;6.186;2023-04-03T01:30:31;2.40;99.90
52543;DHT22;38449;52.696;6.186;2023-04-03T01:32:58;2.40;99.90
52543;DHT22;38449;52.696;6.186;2023-04-03T01:35:24;2.30;99.90
52543;DHT22;38449;52.696;6.186;2023-04-03T01:37:51;2.30;99.90
52543;DHT22;38449;52.696;6.186;2023-04-03T01:40:18;2.30;99.90
52543;DHT22;38449;52.696;6.186;2023-04-03T01:42:44;2.30;99.90
52543;DHT22;38449;52.696;6.186;2023-04-03T01:45:11;2.30;99.90
52543;DHT22;38449;52.696;6.186;2023-04-03T01:47:37;2.20;99.90
52543;DHT22;38449;52.696;6.186;2023-04-03T01:50:04;2.20;99.90
52543;DHT22;38449;52.696;6.186;2023-04-03T01:52:30;2.20;99.90
52543;DHT22;38449;52.696;6.186;2023-04-03T01:54:56;2.20;99.90
52543;DHT22;38449;52.696;6.186;2023-04-03T01:57:23;2.10;99.90
52543;DHT22;38449;52.696;6.186;2023-04-03T01:59:49;2.10;99.90
52543;DHT22;38449;52.696;6.186;2023-04-03T02:02:15;2.10;99.90
52543;DHT22;38449;52.696;6.186;2023-04-03T02:04:42;2.10;99.90
52543;DHT22;38449;52.696;6.186;2023-04-03T02:07:09;2.00;99.90
52543;DHT22;38449;52.696;6.186;2023-04-03T02:09:35;2.00;99.90
52543;DHT22;38449;52.696;6.186;2023-04-03T02:12:01;2.00;99.90
52543;DHT22;38449;52.696;6.186;2023-04-03T02:14:28;2.00;99.90
52543;DHT22;38449;52.696;6.186;2023-04-03T02:16:54;1.90;99.90
52543;DHT22;38449;52.696;6.186;2023-04-03T02:19:20;2.00;99.90
52543;DHT22;38449;52.696;6.186;2023-04-03T02:21:47;1.90;99.90
52543;DHT22;38449;52.696;6.186;2023-04-03T02:24:13;1.80;99.90
52543;DHT22;38449;52.696;6.186;2023-04-03T02:26:39;1.80;99.90
52543;DHT22;38449;52.696;6.186;2023-04-03T02:29:05;1.80;99.90
52543;DHT22;38449;52.696;6.186;2023-04-03T02:31:32;1.80;99.90
52543;DHT22;38449;52.696;6.186;2023-04-03T02:33:58;1.80;99.90
52543;DHT22;38449;52.696;6.186;2023-04-03T02:36:24;1.80;99.90
52543;DHT22;38449;52.696;6.186;2023-04-03T02:38:50;1.70;99.90
52543;DHT22;38449;52.696;6.186;2023-04-03T02:41:17;1.70;99.90
52543;DHT22;38449;52.696;6.186;2023-04-03T02:43:43;1.70;99.90
52543;DHT22;38449;52.696;6.186;2023-04-03T02:46:16;1.70;99.90
52543;DHT22;38449;52.696;6.186;2023-04-03T02:48:42;1.70;99.90
52543;DHT22;38449;52.696;6.186;2023-04-03T02:51:09;1.70;99.90
52543;DHT22;38449;52.696;6.186;2023-04-03T02:53:42;1.70;99.90
52543;DHT22;38449;52.696;6.186;2023-04-03T02:56:15;1.70;99.90
52543;DHT22;38449;52.696;6.186;2023-04-03T02:58:41;1.70;99.90
52543;DHT22;38449;52.696;6.186;2023-04-03T03:01:08;1.60;99.90
52543;DHT22;38449;52.696;6.186;2023-04-03T03:03:34;1.50;99.90
52543;DHT22;38449;52.696;6.186;2023-04-03T03:06:12;1.50;99.90
52543;DHT22;38449;52.696;6.186;2023-04-03T03:08:39;1.50;99.90
52543;DHT22;38449;52.696;6.186;2023-04-03T03:11:06;1.60;99.90
52543;DHT22;38449;52.696;6.186;2023-04-03T03:13:33;1.50;99.90
52543;DHT22;38449;52.696;6.186;2023-04-03T03:16:03;1.50;99.90
52543;DHT22;38449;52.696;6.186;2023-04-03T03:18:29;1.50;99.90
52543;DHT22;38449;52.696;6.186;2023-04-03T03:20:57;1.50;99.90
52543;DHT22;38449;52.696;6.186;2023-04-03T03:23:25;1.50;99.90
52543;DHT22;38449;52.696;6.186;2023-04-03T03:25:58;1.50;99.90
52543;DHT22;38449;52.696;6.186;2023-04-03T03:28:24;1.50;99.90
52543;DHT22;38449;52.696;6.186;2023-04-03T03:30:51;1.40;99.90
52543;DHT22;38449;52.696;6.186;2023-04-03T03:33:18;1.50;99.90
52543;DHT22;38449;52.696;6.186;2023-04-03T03:35:44;1.50;99.90
52543;DHT22;38449;52.696;6.186;2023-04-03T03:38:11;1.50;99.90
52543;DHT22;38449;52.696;6.186;2023-04-03T03:40:38;1.40;99.90
52543;DHT22;38449;52.696;6.186;2023-04-03T03:43:05;1.40;99.90
52543;DHT22;38449;52.696;6.186;2023-04-03T03:45:31;1.40;99.90
52543;DHT22;38449;52.696;6.186;2023-04-03T03:47:57;1.30;99.90
52543;DHT22;38449;52.696;6.186;2023-04-03T03:50:24;1.30;99.90
52543;DHT22;38449;52.696;6.186;2023-04-03T03:52:50;1.30;99.90
52543;DHT22;38449;52.696;6.186;2023-04-03T03:55:17;1.30;99.90
52543;DHT22;38449;52.696;6.186;2023-04-03T03:57:43;1.20;99.90
52543;DHT22;38449;52.696;6.186;2023-04-03T04:00:10;1.20;99.90
52543;DHT22;38449;52.696;6.186;2023-04-03T04:02:43;1.20;99.90
52543;DHT22;38449;52.696;6.186;2023-04-03T04:05:22;1.20;99.90
52543;DHT22;38449;52.696;6.186;2023-04-03T04:07:48;1.10;99.90
52543;DHT22;38449;52.696;6.186;2023-04-03T04:10:15;1.10;99.90
52543;DHT22;38449;52.696;6.186;2023-04-03T04:12:41;1.10;99.90
52543;DHT22;38449;52.696;6.186;2023-04-03T04:15:08;1.10;99.90
52543;DHT22;38449;52.696;6.186;2023-04-03T04:17:35;1.00;99.90
52543;DHT22;38449;52.696;6.186;2023-04-03T04:20:03;1.00;99.90
52543;DHT22;38449;52.696;6.186;2023-04-03T04:22:36;1.00;99.90
52543;DHT22;38449;52.696;6.186;2023-04-03T04:25:04;1.00;99.90
52543;DHT22;38449;52.696;6.186;2023-04-03T04:27:30;1.00;99.90
52543;DHT22;38449;52.696;6.186;2023-04-03T04:30:04;0.90;99.90
52543;DHT22;38449;52.696;6.186;2023-04-03T04:32:31;0.90;99.90
52543;DHT22;38449;52.696;6.186;2023-04-03T04:34:58;0.90;99.90
52543;DHT22;38449;52.696;6.186;2023-04-03T04:37:24;0.90;99.90
52543;DHT22;38449;52.696;6.186;2023-04-03T04:39:53;0.80;99.90
52543;DHT22;38449;52.696;6.186;2023-04-03T04:42:19;0.80;99.90
52543;DHT22;38449;52.696;6.186;2023-04-03T04:44:45;0.80;99.90
52543;DHT22;38449;52.696;6.186;2023-04-03T04:47:17;0.70;99.90
52543;DHT22;38449;52.696;6.186;2023-04-03T04:49:50;0.70;99.90
52543;DHT22;38449;52.696;6.186;2023-04-03T04:52:23;0.70;99.90
52543;DHT22;38449;52.696;6.186;2023-04-03T04:54:49;0.60;99.90
52543;DHT22;38449;52.696;6.186;2023-04-03T04:57:16;0.60;99.90
52543;DHT22;38449;52.696;6.186;2023-04-03T04:59:43;0.60;99.90
52543;DHT22;38449;52.696;6.186;2023-04-03T05:02:09;0.50;99.90
52543;DHT22;38449;52.696;6.186;2023-04-03T05:04:36;0.60;99.90
52543;DHT22;38449;52.696;6.186;2023-04-03T05:07:02;0.60;99.90
52543;DHT22;38449;52.696;6.186;2023-04-03T05:09:28;0.50;99.90
52543;DHT22;38449;52.696;6.186;2023-04-03T05:11:54;0.50;99.90
52543;DHT22;38449;52.696;6.186;2023-04-03T05:14:22;0.40;99.90
52543;DHT22;38449;52.696;6.186;2023-04-03T05:16:49;0.40;99.90
52543;DHT22;38449;52.696;6.186;2023-04-03T05:19:19;0.40;99.90
52543;DHT22;38449;52.696;6.186;2023-04-03T05:21:47;0.50;99.90
52543;DHT22;38449;52.696;6.186;2023-04-03T05:24:14;0.50;99.90
52543;DHT22;38449;52.696;6.186;2023-04-03T05:26:41;0.50;99.90
52543;DHT22;38449;52.696;6.186;2023-04-03T05:29:08;0.50;99.90
52543;DHT22;38449;52.696;6.186;2023-04-03T05:31:35;0.50;99.90
52543;DHT22;38449;52.696;6.186;2023-04-03T05:34:02;0.50;99.90
52543;DHT22;38449;52.696;6.186;2023-04-03T05:36:28;0.60;99.90
52543;DHT22;38449;52.696;6.186;2023-04-03T05:38:54;0.50;99.90
52543;DHT22;38449;52.696;6.186;2023-04-03T05:41:22;0.50;99.90
52543;DHT22;38449;52.696;6.186;2023-04-03T05:43:49;0.60;99.90
52543;DHT22;38449;52.696;6.186;2023-04-03T05:46:18;0.60;99.90
52543;DHT22;38449;52.696;6.186;2023-04-03T05:48:44;0.60;99.90
52543;DHT22;38449;52.696;6.186;2023-04-03T05:51:16;1.10;99.90
52543;DHT22;38449;52.696;6.186;2023-04-03T05:53:44;2.10;99.90
52543;DHT22;38449;52.696;6.186;2023-04-03T05:56:11;2.90;99.90
52543;DHT22;38449;52.696;6.186;2023-04-03T05:58:37;3.70;99.90
52543;DHT22;38449;52.696;6.186;2023-04-03T06:01:04;4.40;99.90
52543;DHT22;38449;52.696;6.186;2023-04-03T06:03:31;4.70;99.90
52543;DHT22;38449;52.696;6.186;2023-04-03T06:06:04;5.10;99.90
52543;DHT22;38449;52.696;6.186;2023-04-03T06:08:35;5.50;99.90
52543;DHT22;38449;52.696;6.186;2023-04-03T06:11:09;5.90;99.90
52543;DHT22;38449;52.696;6.186;2023-04-03T06:13:36;5.90;99.90
52543;DHT22;38449;52.696;6.186;2023-04-03T06:16:05;6.20;99.90
52543;DHT22;38449;52.696;6.186;2023-04-03T06:18:31;6.60;99.90
52543;DHT22;38449;52.696;6.186;2023-04-03T06:20:58;6.40;99.90
52543;DHT22;38449;52.696;6.186;2023-04-03T06:23:24;6.40;99.90
52543;DHT22;38449;52.696;6.186;2023-04-03T06:25:51;6.60;99.90
52543;DHT22;38449;52.696;6.186;2023-04-03T06:28:17;6.70;99.90
52543;DHT22;38449;52.696;6.186;2023-04-03T06:30:46;6.80;99.90
52543;DHT22;38449;52.696;6.186;2023-04-03T06:33:12;6.70;99.90
52543;DHT22;38449;52.696;6.186;2023-04-03T06:35:38;6.70;99.90
52543;DHT22;38449;52.696;6.186;2023-04-03T06:38:05;6.70;99.90
52543;DHT22;38449;52.696;6.186;2023-04-03T06:40:35;6.70;99.90
52543;DHT22;38449;52.696;6.186;2023-04-03T06:43:01;6.80;99.90
52543;DHT22;38449;52.696;6.186;2023-04-03T06:45:29;6.70;99.90
52543;DHT22;38449;52.696;6.186;2023-04-03T06:47:55;6.80;99.90
52543;DHT22;38449;52.696;6.186;2023-04-03T06:50:22;6.90;99.90
52543;DHT22;38449;52.696;6.186;2023-04-03T06:52:48;6.90;99.90
52543;DHT22;38449;52.696;6.186;2023-04-03T06:55:14;6.90;99.90
52543;DHT22;38449;52.696;6.186;2023-04-03T06:57:42;6.90;99.90
52543;DHT22;38449;52.696;6.186;2023-04-03T07:00:10;7.00;99.90
52543;DHT22;38449;52.696;6.186;2023-04-03T07:02:38;7.00;99.90
52543;DHT22;38449;52.696;6.186;2023-04-03T07:05:04;6.80;99.90
52543;DHT22;38449;52.696;6.186;2023-04-03T07:07:32;6.40;99.90
52543;DHT22;38449;52.696;6.186;2023-04-03T07:10:00;6.10;99.90
52543;DHT22;38449;52.696;6.186;2023-04-03T07:12:27;5.90;99.90
52543;DHT22;38449;52.696;6.186;2023-04-03T07:14:53;5.60;99.90
52543;DHT22;38449;52.696;6.186;2023-04-03T07:17:19;5.40;99.90
52543;DHT22;38449;52.696;6.186;2023-04-03T07:19:46;5.20;99.90
52543;DHT22;38449;52.696;6.186;2023-04-03T07:22:15;5.10;99.90
52543;DHT22;38449;52.696;6.186;2023-04-03T07:24:41;5.00;99.90
52543;DHT22;38449;52.696;6.186;2023-04-03T07:27:09;5.00;99.90
52543;DHT22;38449;52.696;6.186;2023-04-03T07:29:36;5.10;99.90
52543;DHT22;38449;52.696;6.186;2023-04-03T07:32:03;5.10;99.90
52543;DHT22;38449;52.696;6.186;2023-04-03T07:34:29;5.20;99.90
52543;DHT22;38449;52.696;6.186;2023-04-03T07:36:56;5.20;99.90
52543;DHT22;38449;52.696;6.186;2023-04-03T07:39:25;5.20;99.90
52543;DHT22;38449;52.696;6.186;2023-04-03T07:41:51;5.40;99.90
52543;DHT22;38449;52.696;6.186;2023-04-03T07:44:18;5.50;99.90
52543;DHT22;38449;52.696;6.186;2023-04-03T07:46:44;5.50;99.90
52543;DHT22;38449;52.696;6.186;2023-04-03T07:49:10;5.40;99.90
52543;DHT22;38449;52.696;6.186;2023-04-03T07:51:37;5.60;99.90
52543;DHT22;38449;52.696;6.186;2023-04-03T07:54:03;5.70;99.90
52543;DHT22;38449;52.696;6.186;2023-04-03T07:56:30;5.80;99.90
52543;DHT22;38449;52.696;6.186;2023-04-03T07:58:57;5.90;99.90
52543;DHT22;38449;52.696;6.186;2023-04-03T08:01:24;6.00;99.90
52543;DHT22;38449;52.696;6.186;2023-04-03T08:03:59;6.10;99.90
52543;DHT22;38449;52.696;6.186;2023-04-03T08:06:26;6.20;99.90
52543;DHT22;38449;52.696;6.186;2023-04-03T08:08:52;6.10;99.90
52543;DHT22;38449;52.696;6.186;2023-04-03T08:11:51;6.10;99.90
52543;DHT22;38449;52.696;6.186;2023-04-03T08:14:20;6.20;99.90
52543;DHT22;38449;52.696;6.186;2023-04-03T08:16:47;6.30;99.90
52543;DHT22;38449;52.696;6.186;2023-04-03T08:19:17;6.40;99.90
52543;DHT22;38449;52.696;6.186;2023-04-03T08:21:44;6.20;99.90
52543;DHT22;38449;52.696;6.186;2023-04-03T08:24:18;6.30;99.90
52543;DHT22;38449;52.696;6.186;2023-04-03T08:26:45;6.40;99.90
52543;DHT22;38449;52.696;6.186;2023-04-03T08:29:11;6.40;99.90
52543;DHT22;38449;52.696;6.186;2023-04-03T08:31:44;6.60;99.90
52543;DHT22;38449;52.696;6.186;2023-04-03T08:34:10;6.60;99.90
52543;DHT22;38449;52.696;6.186;2023-04-03T08:36:43;6.80;99.90
52543;DHT22;38449;52.696;6.186;2023-04-03T08:39:11;6.70;99.90
52543;DHT22;38449;52.696;6.186;2023-04-03T08:41:47;6.80;99.90
52543;DHT22;38449;52.696;6.186;2023-04-03T08:50:01;7.00;99.80
52543;DHT22;38449;52.696;6.186;2023-04-03T08:52:39;7.10;98.90
52543;DHT22;38449;52.696;6.186;2023-04-03T08:57:44;7.00;99.40
52543;DHT22;38449;52.696;6.186;2023-04-03T09:00:19;7.20;99.80
52543;DHT22;38449;52.696;6.186;2023-04-03T09:02:52;7.20;99.60
52543;DHT22;38449;52.696;6.186;2023-04-03T09:11:25;7.40;98.80
52543;DHT22;38449;52.696;6.186;2023-04-03T09:14:02;7.40;99.10
52543;DHT22;38449;52.696;6.186;2023-04-03T09:16:49;7.50;99.00
52543;DHT22;38449;52.696;6.186;2023-04-03T09:22:01;7.50;96.20
52543;DHT22;38449;52.696;6.186;2023-04-03T09:24:31;7.50;96.20
52543;DHT22;38449;52.696;6.186;2023-04-03T09:27:04;7.50;96.40
52543;DHT22;38449;52.696;6.186;2023-04-03T09:29:39;7.60;96.70
52543;DHT22;38449;52.696;6.186;2023-04-03T09:32:35;7.70;96.50
52543;DHT22;38449;52.696;6.186;2023-04-03T09:37:50;8.10;97.10
52543;DHT22;38449;52.696;6.186;2023-04-03T09:40:28;7.90;93.20
52543;DHT22;38449;52.696;6.186;2023-04-03T09:43:00;8.10;94.90
52543;DHT22;38449;52.696;6.186;2023-04-03T09:45:34;8.00;95.20
52543;DHT22;38449;52.696;6.186;2023-04-03T09:48:27;8.20;93.90
52543;DHT22;38449;52.696;6.186;2023-04-03T09:51:01;8.20;93.20
52543;DHT22;38449;52.696;6.186;2023-04-03T09:53:32;8.20;93.40
52543;DHT22;38449;52.696;6.186;2023-04-03T09:56:03;8.20;93.70
52543;DHT22;38449;52.696;6.186;2023-04-03T09:58:37;8.20;93.50
52543;DHT22;38449;52.696;6.186;2023-04-03T10:01:05;8.20;93.70
52543;DHT22;38449;52.696;6.186;2023-04-03T10:03:34;8.30;93.90
52543;DHT22;38449;52.696;6.186;2023-04-03T10:06:03;8.40;94.40
52543;DHT22;38449;52.696;6.186;2023-04-03T10:08:34;8.60;92.20
52543;DHT22;38449;52.696;6.186;2023-04-03T10:11:10;8.60;90.10
52543;DHT22;38449;52.696;6.186;2023-04-03T10:14:03;8.50;90.30
52543;DHT22;38449;52.696;6.186;2023-04-03T10:17:12;8.60;89.90
52543;DHT22;38449;52.696;6.186;2023-04-03T10:19:34;8.60;89.50
52543;DHT22;38449;52.696;6.186;2023-04-03T10:22:36;8.60;91.20
52543;DHT22;38449;52.696;6.186;2023-04-03T10:25:15;8.80;89.70
52543;DHT22;38449;52.696;6.186;2023-04-03T10:38:19;9.00;88.00
52543;DHT22;38449;52.696;6.186;2023-04-03T10:41:10;8.90;87.90
52543;DHT22;38449;52.696;6.186;2023-04-03T10:44:30;9.10;90.20
52543;DHT22;38449;52.696;6.186;2023-04-03T10:49:53;9.30;89.30
52543;DHT22;38449;52.696;6.186;2023-04-03T10:52:24;9.20;89.80
52543;DHT22;38449;52.696;6.186;2023-04-03T10:57:21;9.30;90.10
52543;DHT22;38449;52.696;6.186;2023-04-03T11:00:02;9.40;89.40
52543;DHT22;38449;52.696;6.186;2023-04-03T11:02:32;9.30;89.90
52543;DHT22;38449;52.696;6.186;2023-04-03T11:05:37;9.30;88.70
52543;DHT22;38449;52.696;6.186;2023-04-03T11:10:49;9.40;89.80
52543;DHT22;38449;52.696;6.186;2023-04-03T11:13:24;9.50;90.00
52543;DHT22;38449;52.696;6.186;2023-04-03T11:15:53;9.50;90.20
52543;DHT22;38449;52.696;6.186;2023-04-03T11:18:31;9.40;88.20
52543;DHT22;38449;52.696;6.186;2023-04-03T11:21:13;9.50;90.10
52543;DHT22;38449;52.696;6.186;2023-04-03T11:23:40;9.50;87.70
52543;DHT22;38449;52.696;6.186;2023-04-03T11:26:19;9.60;88.90
52543;DHT22;38449;52.696;6.186;2023-04-03T11:28:53;9.50;88.50
52543;DHT22;38449;52.696;6.186;2023-04-03T11:36:45;9.50;90.20
52543;DHT22;38449;52.696;6.186;2023-04-03T11:39:30;9.50;90.00
52543;DHT22;38449;52.696;6.186;2023-04-03T11:44:48;9.70;89.80
52543;DHT22;38449;52.696;6.186;2023-04-03T11:47:44;9.70;89.10
52543;DHT22;38449;52.696;6.186;2023-04-03T11:53:09;9.70;87.90
52543;DHT22;38449;52.696;6.186;2023-04-03T11:55:58;9.60;89.30
52543;DHT22;38449;52.696;6.186;2023-04-03T11:58:31;9.80;90.00
52543;DHT22;38449;52.696;6.186;2023-04-03T12:01:11;9.60;89.30
52543;DHT22;38449;52.696;6.186;2023-04-03T12:04:07;9.50;88.60
52543;DHT22;38449;52.696;6.186;2023-04-03T12:09:28;9.80;90.70
52543;DHT22;38449;52.696;6.186;2023-04-03T12:11:57;9.80;89.00
52543;DHT22;38449;52.696;6.186;2023-04-03T12:14:25;9.70;88.90
52543;DHT22;38449;52.696;6.186;2023-04-03T12:16:57;9.80;89.10
52543;DHT22;38449;52.696;6.186;2023-04-03T12:19:33;9.90;89.30
52543;DHT22;38449;52.696;6.186;2023-04-03T12:24:41;9.80;88.70
52543;DHT22;38449;52.696;6.186;2023-04-03T12:27:24;9.80;88.80
52543;DHT22;38449;52.696;6.186;2023-04-03T12:33:00;9.70;86.80
52543;DHT22;38449;52.696;6.186;2023-04-03T12:35:39;9.60;87.80
52543;DHT22;38449;52.696;6.186;2023-04-03T12:41:51;9.70;89.50
52543;DHT22;38449;52.696;6.186;2023-04-03T12:44:40;9.70;89.00
52543;DHT22;38449;52.696;6.186;2023-04-03T12:47:25;9.90;90.60
52543;DHT22;38449;52.696;6.186;2023-04-03T12:49:53;9.90;89.10
52543;DHT22;38449;52.696;6.186;2023-04-03T12:52:40;9.80;88.70
52543;DHT22;38449;52.696;6.186;2023-04-03T12:55:14;9.80;87.60
52543;DHT22;38449;52.696;6.186;2023-04-03T12:57:41;9.60;88.00
52543;DHT22;38449;52.696;6.186;2023-04-03T13:00:40;9.60;89.80
52543;DHT22;38449;52.696;6.186;2023-04-03T13:03:21;9.70;89.40
52543;DHT22;38449;52.696;6.186;2023-04-03T13:05:48;10.00;90.10
52543;DHT22;38449;52.696;6.186;2023-04-03T13:08:15;10.00;89.70
52543;DHT22;38449;52.696;6.186;2023-04-03T13:13:26;9.70;88.00
52543;DHT22;38449;52.696;6.186;2023-04-03T13:15:53;9.80;90.20
52543;DHT22;38449;52.696;6.186;2023-04-03T13:18:35;9.80;89.90
52543;DHT22;38449;52.696;6.186;2023-04-03T13:21:05;9.80;89.00
52543;DHT22;38449;52.696;6.186;2023-04-03T13:23:33;9.70;88.60
52543;DHT22;38449;52.696;6.186;2023-04-03T13:26:01;9.70;90.00
52543;DHT22;38449;52.696;6.186;2023-04-03T13:28:30;9.80;89.00
52543;DHT22;38449;52.696;6.186;2023-04-03T13:31:08;9.80;90.10
52543;DHT22;38449;52.696;6.186;2023-04-03T13:33:36;9.90;89.90
52543;DHT22;38449;52.696;6.186;2023-04-03T13:38:42;9.90;89.30
52543;DHT22;38449;52.696;6.186;2023-04-03T13:41:37;9.90;89.90
52543;DHT22;38449;52.696;6.186;2023-04-03T13:46:54;10.00;90.50
52543;DHT22;38449;52.696;6.186;2023-04-03T13:51:49;10.10;89.70
52543;DHT22;38449;52.696;6.186;2023-04-03T13:54:24;10.00;90.30
52543;DHT22;38449;52.696;6.186;2023-04-03T13:56:56;10.00;90.10
52543;DHT22;38449;52.696;6.186;2023-04-03T13:59:24;10.10;90.30
52543;DHT22;38449;52.696;6.186;2023-04-03T14:01:57;10.00;90.10
52543;DHT22;38449;52.696;6.186;2023-04-03T14:07:11;10.20;90.20
52543;DHT22;38449;52.696;6.186;2023-04-03T14:09:37;10.10;90.30
52543;DHT22;38449;52.696;6.186;2023-04-03T14:12:35;10.10;90.70
52543;DHT22;38449;52.696;6.186;2023-04-03T14:15:04;10.10;90.70
52543;DHT22;38449;52.696;6.186;2023-04-03T14:17:31;10.10;89.30
52543;DHT22;38449;52.696;6.186;2023-04-03T14:19:57;10.10;89.80
52543;DHT22;38449;52.696;6.186;2023-04-03T14:22:27;10.00;90.20
52543;DHT22;38449;52.696;6.186;2023-04-03T14:24:54;10.10;90.50
52543;DHT22;38449;52.696;6.186;2023-04-03T14:27:23;10.20;90.30
52543;DHT22;38449;52.696;6.186;2023-04-03T14:29:51;10.20;89.70
52543;DHT22;38449;52.696;6.186;2023-04-03T14:32:22;10.10;89.20
52543;DHT22;38449;52.696;6.186;2023-04-03T14:34:49;10.00;90.00
52543;DHT22;38449;52.696;6.186;2023-04-03T14:37:20;10.00;90.20
52543;DHT22;38449;52.696;6.186;2023-04-03T14:39:48;9.90;90.10
52543;DHT22;38449;52.696;6.186;2023-04-03T14:42:21;9.90;90.70
52543;DHT22;38449;52.696;6.186;2023-04-03T14:44:47;9.90;90.30
52543;DHT22;38449;52.696;6.186;2023-04-03T14:47:17;10.00;90.70
52543;DHT22;38449;52.696;6.186;2023-04-03T14:49:44;10.10;91.50
52543;DHT22;38449;52.696;6.186;2023-04-03T14:52:31;10.10;90.80
52543;DHT22;38449;52.696;6.186;2023-04-03T14:54:59;10.20;90.60
52543;DHT22;38449;52.696;6.186;2023-04-03T14:57:28;10.30;91.10
52543;DHT22;38449;52.696;6.186;2023-04-03T14:59:55;10.40;90.80
52543;DHT22;38449;52.696;6.186;2023-04-03T15:02:27;10.40;90.00
52543;DHT22;38449;52.696;6.186;2023-04-03T15:04:55;10.20;90.00
52543;DHT22;38449;52.696;6.186;2023-04-03T15:07:22;10.30;90.60
52543;DHT22;38449;52.696;6.186;2023-04-03T15:09:50;10.20;90.60
52543;DHT22;38449;52.696;6.186;2023-04-03T15:12:16;10.30;90.40
52543;DHT22;38449;52.696;6.186;2023-04-03T15:14:43;10.40;89.60
52543;DHT22;38449;52.696;6.186;2023-04-03T15:17:15;10.30;90.30
52543;DHT22;38449;52.696;6.186;2023-04-03T15:19:42;10.20;90.30
52543;DHT22;38449;52.696;6.186;2023-04-03T15:22:16;10.20;90.20
52543;DHT22;38449;52.696;6.186;2023-04-03T15:24:44;10.20;90.10
52543;DHT22;38449;52.696;6.186;2023-04-03T15:27:11;10.20;89.30
52543;DHT22;38449;52.696;6.186;2023-04-03T15:29:39;10.10;89.50
52543;DHT22;38449;52.696;6.186;2023-04-03T15:32:05;10.10;90.10
52543;DHT22;38449;52.696;6.186;2023-04-03T15:34:32;10.10;89.70
52543;DHT22;38449;52.696;6.186;2023-04-03T15:36:58;10.10;90.60
52543;DHT22;38449;52.696;6.186;2023-04-03T15:39:25;10.10;90.60
52543;DHT22;38449;52.696;6.186;2023-04-03T15:41:52;10.10;91.10
52543;DHT22;38449;52.696;6.186;2023-04-03T15:44:20;10.30;92.50
52543;DHT22;38449;52.696;6.186;2023-04-03T15:46:47;10.30;92.50
52543;DHT22;38449;52.696;6.186;2023-04-03T15:49:21;10.30;90.00
52543;DHT22;38449;52.696;6.186;2023-04-03T15:51:48;10.30;92.20
52543;DHT22;38449;52.696;6.186;2023-04-03T15:54:14;10.30;90.80
52543;DHT22;38449;52.696;6.186;2023-04-03T15:56:41;10.30;90.50
52543;DHT22;38449;52.696;6.186;2023-04-03T15:59:07;10.20;89.90
52543;DHT22;38449;52.696;6.186;2023-04-03T16:01:34;10.20;88.80
52543;DHT22;38449;52.696;6.186;2023-04-03T16:04:01;10.30;90.10
52543;DHT22;38449;52.696;6.186;2023-04-03T16:06:27;10.10;88.50
52543;DHT22;38449;52.696;6.186;2023-04-03T16:08:56;10.00;89.20
52543;DHT22;38449;52.696;6.186;2023-04-03T16:11:27;10.20;91.70
52543;DHT22;38449;52.696;6.186;2023-04-03T16:13:54;10.20;90.40
52543;DHT22;38449;52.696;6.186;2023-04-03T16:16:20;10.20;90.30
52543;DHT22;38449;52.696;6.186;2023-04-03T16:18:47;10.30;90.60
52543;DHT22;38449;52.696;6.186;2023-04-03T16:21:15;10.30;90.50
52543;DHT22;38449;52.696;6.186;2023-04-03T16:23:42;10.20;88.90
52543;DHT22;38449;52.696;6.186;2023-04-03T16:26:08;10.10;89.40
52543;DHT22;38449;52.696;6.186;2023-04-03T16:28:35;10.10;90.30
52543;DHT22;38449;52.696;6.186;2023-04-03T16:31:02;9.90;90.30
52543;DHT22;38449;52.696;6.186;2023-04-03T16:33:29;9.90;88.40
52543;DHT22;38449;52.696;6.186;2023-04-03T16:36:04;9.80;89.10
52543;DHT22;38449;52.696;6.186;2023-04-03T16:38:31;9.80;89.60
52543;DHT22;38449;52.696;6.186;2023-04-03T16:40:58;9.70;89.20
52543;DHT22;38449;52.696;6.186;2023-04-03T16:43:26;9.60;90.00
52543;DHT22;38449;52.696;6.186;2023-04-03T16:45:52;9.60;90.10
52543;DHT22;38449;52.696;6.186;2023-04-03T16:48:19;9.70;90.50
52543;DHT22;38449;52.696;6.186;2023-04-03T16:50:49;9.70;90.20
52543;DHT22;38449;52.696;6.186;2023-04-03T16:53:23;9.60;90.20
52543;DHT22;38449;52.696;6.186;2023-04-03T16:55:50;9.50;90.50
52543;DHT22;38449;52.696;6.186;2023-04-03T16:58:16;9.50;90.40
52543;DHT22;38449;52.696;6.186;2023-04-03T17:00:43;9.50;90.50
52543;DHT22;38449;52.696;6.186;2023-04-03T17:03:09;9.50;90.60
52543;DHT22;38449;52.696;6.186;2023-04-03T17:05:35;9.40;90.40
52543;DHT22;38449;52.696;6.186;2023-04-03T17:08:02;9.50;90.30
52543;DHT22;38449;52.696;6.186;2023-04-03T17:10:29;9.40;90.70
52543;DHT22;38449;52.696;6.186;2023-04-03T17:12:56;9.40;90.30
52543;DHT22;38449;52.696;6.186;2023-04-03T17:15:23;9.40;90.20
52543;DHT22;38449;52.696;6.186;2023-04-03T17:17:51;9.30;90.20
52543;DHT22;38449;52.696;6.186;2023-04-03T17:20:18;9.30;90.40
52543;DHT22;38449;52.696;6.186;2023-04-03T17:22:44;9.20;90.90